sensor_id;sensor_type;location;lat;lon;timestamp;P1;durP1;ratioP1;P2;durP2;ratioP2
15616;SDS011;7908;51.688;7.130;2023-04-15T00:01:39;10.23;;;7.40;;
15616;SDS011;7908;51.688;7.130;2023-04-15T00:04:15;11.43;;;8.20;;
15616;SDS011;7908;51.688;7.130;2023-04-15T00:06:52;11.20;;;9.00;;
15616;SDS011;7908;51.688;7.130;2023-04-15T00:09:23;9.40;;;7.83;;
15616;SDS011;7908;51.688;7.130;2023-04-15T00:11:53;9.90;;;8.20;;
15616;SDS011;7908;51.688;7.130;2023-04-15T00:14:25;8.87;;;7.73;;
15616;SDS011;7908;51.688;7.130;2023-04-15T00:16:55;10.17;;;7.97;;
15616;SDS011;7908;51.688;7.130;2023-04-15T00:19:24;9.40;;;7.87;;
15616;SDS011;7908;51.688;7.130;2023-04-15T00:21:55;10.97;;;7.67;;
15616;SDS011;7908;51.688;7.130;2023-04-15T00:24:27;10.03;;;8.13;;
15616;SDS011;7908;51.688;7.130;2023-04-15T00:27:02;8.73;;;7.80;;
15616;SDS011;7908;51.688;7.130;2023-04-15T00:29:32;11.07;;;8.30;;
15616;SDS011;7908;51.688;7.130;2023-04-15T00:32:01;9.37;;;7.37;;
15616;SDS011;7908;51.688;7.130;2023-04-15T00:34:32;10.70;;;8.53;;
15616;SDS011;7908;51.688;7.130;2023-04-15T00:37:03;8.83;;;7.90;;
15616;SDS011;7908;51.688;7.130;2023-04-15T00:39:35;10.37;;;7.83;;
15616;SDS011;7908;51.688;7.130;2023-04-15T00:42:09;10.60;;;8.20;;
15616;SDS011;7908;51.688;7.130;2023-04-15T00:44:40;10.33;;;8.30;;
15616;SDS011;7908;51.688;7.130;2023-04-15T00:47:10;9.27;;;8.20;;
15616;SDS011;7908;51.688;7.130;2023-04-15T00:49:41;12.57;;;8.57;;
15616;SDS011;7908;51.688;7.130;2023-04-15T00:52:17;10.30;;;7.70;;
15616;SDS011;7908;51.688;7.130;2023-04-15T00:54:49;9.93;;;7.83;;
15616;SDS011;7908;51.688;7.130;2023-04-15T00:57:19;10.03;;;8.30;;
15616;SDS011;7908;51.688;7.130;2023-04-15T00:59:49;10.07;;;8.17;;
15616;SDS011;7908;51.688;7.130;2023-04-15T01:02:22;8.87;;;7.80;;
15616;SDS011;7908;51.688;7.130;2023-04-15T01:04:52;9.70;;;8.17;;
15616;SDS011;7908;51.688;7.130;2023-04-15T01:07:22;9.20;;;8.20;;
15616;SDS011;7908;51.688;7.130;2023-04-15T01:09:52;9.93;;;8.17;;
15616;SDS011;7908;51.688;7.130;2023-04-15T01:12:21;9.00;;;8.10;;
15616;SDS011;7908;51.688;7.130;2023-04-15T01:14:53;9.00;;;7.93;;
15616;SDS011;7908;51.688;7.130;2023-04-15T01:17:23;9.43;;;8.17;;
15616;SDS011;7908;51.688;7.130;2023-04-15T01:19:53;9.20;;;8.30;;
15616;SDS011;7908;51.688;7.130;2023-04-15T01:22:26;10.20;;;8.37;;
15616;SDS011;7908;51.688;7.130;2023-04-15T01:24:56;9.20;;;8.33;;
15616;SDS011;7908;51.688;7.130;2023-04-15T01:27:32;11.73;;;8.50;;
15616;SDS011;7908;51.688;7.130;2023-04-15T01:30:09;9.90;;;8.23;;
15616;SDS011;7908;51.688;7.130;2023-04-15T01:32:39;11.60;;;8.77;;
15616;SDS011;7908;51.688;7.130;2023-04-15T01:35:08;9.33;;;8.33;;
15616;SDS011;7908;51.688;7.130;2023-04-15T01:37:40;10.57;;;8.73;;
15616;SDS011;7908;51.688;7.130;2023-04-15T01:40:09;9.90;;;8.90;;
15616;SDS011;7908;51.688;7.130;2023-04-15T01:42:41;11.13;;;9.07;;
15616;SDS011;7908;51.688;7.130;2023-04-15T01:45:10;9.60;;;8.60;;
15616;SDS011;7908;51.688;7.130;2023-04-15T01:47:39;9.20;;;8.03;;
15616;SDS011;7908;51.688;7.130;2023-04-15T01:50:08;10.97;;;8.90;;
15616;SDS011;7908;51.688;7.130;2023-04-15T01:52:37;12.10;;;9.40;;
15616;SDS011;7908;51.688;7.130;2023-04-15T01:55:07;10.93;;;9.03;;
15616;SDS011;7908;51.688;7.130;2023-04-15T01:57:36;9.80;;;8.83;;
15616;SDS011;7908;51.688;7.130;2023-04-15T02:00:08;10.13;;;9.13;;
15616;SDS011;7908;51.688;7.130;2023-04-15T02:02:37;9.80;;;8.50;;
15616;SDS011;7908;51.688;7.130;2023-04-15T02:05:07;9.57;;;8.37;;
15616;SDS011;7908;51.688;7.130;2023-04-15T02:07:36;10.03;;;9.03;;
15616;SDS011;7908;51.688;7.130;2023-04-15T02:10:06;10.23;;;9.13;;
15616;SDS011;7908;51.688;7.130;2023-04-15T02:12:36;9.73;;;8.80;;
15616;SDS011;7908;51.688;7.130;2023-04-15T02:15:08;10.40;;;8.90;;
15616;SDS011;7908;51.688;7.130;2023-04-15T02:17:41;10.00;;;8.83;;
15616;SDS011;7908;51.688;7.130;2023-04-15T02:20:12;10.13;;;9.10;;
15616;SDS011;7908;51.688;7.130;2023-04-15T02:22:40;10.73;;;9.63;;
15616;SDS011;7908;51.688;7.130;2023-04-15T02:25:09;10.63;;;9.53;;
15616;SDS011;7908;51.688;7.130;2023-04-15T02:27:41;11.10;;;9.30;;
15616;SDS011;7908;51.688;7.130;2023-04-15T02:30:11;11.57;;;9.70;;
15616;SDS011;7908;51.688;7.130;2023-04-15T02:32:40;11.07;;;9.53;;
15616;SDS011;7908;51.688;7.130;2023-04-15T02:35:10;10.80;;;9.70;;
15616;SDS011;7908;51.688;7.130;2023-04-15T02:37:39;10.83;;;9.73;;
15616;SDS011;7908;51.688;7.130;2023-04-15T02:40:14;11.30;;;10.10;;
15616;SDS011;7908;51.688;7.130;2023-04-15T02:42:43;11.00;;;9.90;;
15616;SDS011;7908;51.688;7.130;2023-04-15T02:45:13;10.30;;;9.23;;
15616;SDS011;7908;51.688;7.130;2023-04-15T02:47:43;11.10;;;9.80;;
15616;SDS011;7908;51.688;7.130;2023-04-15T02:50:13;10.37;;;9.40;;
15616;SDS011;7908;51.688;7.130;2023-04-15T02:52:42;10.97;;;9.87;;
15616;SDS011;7908;51.688;7.130;2023-04-15T02:55:11;10.30;;;9.20;;
15616;SDS011;7908;51.688;7.130;2023-04-15T02:57:40;11.10;;;9.40;;
15616;SDS011;7908;51.688;7.130;2023-04-15T03:00:09;10.90;;;9.80;;
15616;SDS011;7908;51.688;7.130;2023-04-15T03:02:41;11.20;;;10.07;;
15616;SDS011;7908;51.688;7.130;2023-04-15T03:05:10;11.93;;;9.90;;
15616;SDS011;7908;51.688;7.130;2023-04-15T03:07:39;11.17;;;9.70;;
15616;SDS011;7908;51.688;7.130;2023-04-15T03:10:09;11.23;;;10.13;;
15616;SDS011;7908;51.688;7.130;2023-04-15T03:12:41;11.13;;;10.00;;
15616;SDS011;7908;51.688;7.130;2023-04-15T03:15:10;8.60;;;7.00;;
15616;SDS011;7908;51.688;7.130;2023-04-15T03:17:39;11.17;;;10.03;;
15616;SDS011;7908;51.688;7.130;2023-04-15T03:20:09;14.10;;;6.77;;
15616;SDS011;7908;51.688;7.130;2023-04-15T03:22:38;11.50;;;10.40;;
15616;SDS011;7908;51.688;7.130;2023-04-15T03:25:07;15.60;;;10.83;;
15616;SDS011;7908;51.688;7.130;2023-04-15T03:27:36;11.97;;;10.53;;
15616;SDS011;7908;51.688;7.130;2023-04-15T03:30:07;10.67;;;9.57;;
15616;SDS011;7908;51.688;7.130;2023-04-15T03:32:37;11.30;;;10.20;;
15616;SDS011;7908;51.688;7.130;2023-04-15T03:35:08;11.53;;;10.37;;
15616;SDS011;7908;51.688;7.130;2023-04-15T03:37:37;11.20;;;9.90;;
15616;SDS011;7908;51.688;7.130;2023-04-15T03:40:07;12.43;;;11.13;;
15616;SDS011;7908;51.688;7.130;2023-04-15T03:42:36;13.20;;;11.07;;
15616;SDS011;7908;51.688;7.130;2023-04-15T03:45:05;13.10;;;11.80;;
15616;SDS011;7908;51.688;7.130;2023-04-15T03:47:34;12.10;;;10.90;;
15616;SDS011;7908;51.688;7.130;2023-04-15T03:50:04;13.60;;;11.83;;
15616;SDS011;7908;51.688;7.130;2023-04-15T03:52:35;13.40;;;11.50;;
15616;SDS011;7908;51.688;7.130;2023-04-15T03:55:05;11.77;;;10.63;;
15616;SDS011;7908;51.688;7.130;2023-04-15T03:57:33;10.57;;;9.50;;
15616;SDS011;7908;51.688;7.130;2023-04-15T04:00:06;6.90;;;5.67;;
15616;SDS011;7908;51.688;7.130;2023-04-15T04:02:36;12.50;;;10.67;;
15616;SDS011;7908;51.688;7.130;2023-04-15T04:05:06;9.70;;;7.63;;
15616;SDS011;7908;51.688;7.130;2023-04-15T04:07:36;9.00;;;6.23;;
15616;SDS011;7908;51.688;7.130;2023-04-15T04:10:05;12.70;;;11.40;;
15616;SDS011;7908;51.688;7.130;2023-04-15T04:12:34;13.27;;;11.83;;
15616;SDS011;7908;51.688;7.130;2023-04-15T04:15:03;13.23;;;11.93;;
15616;SDS011;7908;51.688;7.130;2023-04-15T04:17:35;12.57;;;11.27;;
15616;SDS011;7908;51.688;7.130;2023-04-15T04:20:04;13.27;;;11.97;;
15616;SDS011;7908;51.688;7.130;2023-04-15T04:22:37;14.07;;;12.63;;
15616;SDS011;7908;51.688;7.130;2023-04-15T04:25:07;13.63;;;12.23;;
15616;SDS011;7908;51.688;7.130;2023-04-15T04:27:37;13.23;;;11.93;;
15616;SDS011;7908;51.688;7.130;2023-04-15T04:30:06;12.67;;;9.30;;
15616;SDS011;7908;51.688;7.130;2023-04-15T04:32:35;12.30;;;10.53;;
15616;SDS011;7908;51.688;7.130;2023-04-15T04:35:04;13.47;;;11.90;;
15616;SDS011;7908;51.688;7.130;2023-04-15T04:37:33;11.03;;;8.60;;
15616;SDS011;7908;51.688;7.130;2023-04-15T04:40:04;13.73;;;11.87;;
15616;SDS011;7908;51.688;7.130;2023-04-15T04:42:34;10.63;;;7.57;;
15616;SDS011;7908;51.688;7.130;2023-04-15T04:45:05;9.23;;;6.83;;
15616;SDS011;7908;51.688;7.130;2023-04-15T04:47:34;10.37;;;7.80;;
15616;SDS011;7908;51.688;7.130;2023-04-15T04:50:03;8.63;;;6.63;;
15616;SDS011;7908;51.688;7.130;2023-04-15T04:52:32;12.10;;;8.57;;
15616;SDS011;7908;51.688;7.130;2023-04-15T04:55:01;10.40;;;6.10;;
15616;SDS011;7908;51.688;7.130;2023-04-15T04:57:31;10.57;;;7.43;;
15616;SDS011;7908;51.688;7.130;2023-04-15T05:00:01;13.77;;;12.40;;
15616;SDS011;7908;51.688;7.130;2023-04-15T05:02:30;14.37;;;12.87;;
15616;SDS011;7908;51.688;7.130;2023-04-15T05:04:59;10.73;;;7.53;;
15616;SDS011;7908;51.688;7.130;2023-04-15T05:07:28;14.03;;;12.67;;
15616;SDS011;7908;51.688;7.130;2023-04-15T05:09:56;10.60;;;8.27;;
15616;SDS011;7908;51.688;7.130;2023-04-15T05:12:25;10.57;;;7.40;;
15616;SDS011;7908;51.688;7.130;2023-04-15T05:14:55;14.77;;;12.80;;
15616;SDS011;7908;51.688;7.130;2023-04-15T05:17:24;14.47;;;11.53;;
15616;SDS011;7908;51.688;7.130;2023-04-15T05:19:55;11.10;;;7.43;;
15616;SDS011;7908;51.688;7.130;2023-04-15T05:22:24;16.27;;;14.07;;
15616;SDS011;7908;51.688;7.130;2023-04-15T05:24:52;14.43;;;13.03;;
15616;SDS011;7908;51.688;7.130;2023-04-15T05:27:21;15.20;;;13.60;;
15616;SDS011;7908;51.688;7.130;2023-04-15T05:29:50;14.90;;;13.40;;
15616;SDS011;7908;51.688;7.130;2023-04-15T05:32:20;10.60;;;9.07;;
15616;SDS011;7908;51.688;7.130;2023-04-15T05:34:49;16.13;;;14.40;;
15616;SDS011;7908;51.688;7.130;2023-04-15T05:37:17;15.97;;;14.03;;
15616;SDS011;7908;51.688;7.130;2023-04-15T05:39:47;14.67;;;12.57;;
15616;SDS011;7908;51.688;7.130;2023-04-15T05:42:16;16.23;;;10.17;;
15616;SDS011;7908;51.688;7.130;2023-04-15T05:44:44;15.53;;;13.43;;
15616;SDS011;7908;51.688;7.130;2023-04-15T05:47:13;15.03;;;13.27;;
15616;SDS011;7908;51.688;7.130;2023-04-15T05:49:43;16.37;;;14.03;;
15616;SDS011;7908;51.688;7.130;2023-04-15T05:52:11;15.63;;;13.90;;
15616;SDS011;7908;51.688;7.130;2023-04-15T05:54:40;15.10;;;13.60;;
15616;SDS011;7908;51.688;7.130;2023-04-15T05:57:09;14.67;;;12.83;;
15616;SDS011;7908;51.688;7.130;2023-04-15T05:59:40;15.33;;;13.83;;
15616;SDS011;7908;51.688;7.130;2023-04-15T06:02:08;15.40;;;13.80;;
15616;SDS011;7908;51.688;7.130;2023-04-15T06:04:37;14.27;;;12.87;;
15616;SDS011;7908;51.688;7.130;2023-04-15T06:07:08;15.10;;;13.53;;
15616;SDS011;7908;51.688;7.130;2023-04-15T06:09:37;14.40;;;13.00;;
15616;SDS011;7908;51.688;7.130;2023-04-15T06:12:05;14.70;;;13.17;;
15616;SDS011;7908;51.688;7.130;2023-04-15T06:14:37;14.27;;;12.77;;
15616;SDS011;7908;51.688;7.130;2023-04-15T06:17:06;14.67;;;13.20;;
15616;SDS011;7908;51.688;7.130;2023-04-15T06:19:35;16.30;;;14.57;;
15616;SDS011;7908;51.688;7.130;2023-04-15T06:22:04;15.53;;;13.90;;
15616;SDS011;7908;51.688;7.130;2023-04-15T06:24:34;16.67;;;15.07;;
15616;SDS011;7908;51.688;7.130;2023-04-15T06:27:03;15.30;;;13.73;;
15616;SDS011;7908;51.688;7.130;2023-04-15T06:29:32;15.47;;;13.90;;
15616;SDS011;7908;51.688;7.130;2023-04-15T06:32:01;16.43;;;14.07;;
15616;SDS011;7908;51.688;7.130;2023-04-15T06:34:29;15.47;;;13.97;;
15616;SDS011;7908;51.688;7.130;2023-04-15T06:36:58;16.23;;;14.53;;
15616;SDS011;7908;51.688;7.130;2023-04-15T06:39:27;15.33;;;13.70;;
15616;SDS011;7908;51.688;7.130;2023-04-15T06:41:59;15.33;;;13.77;;
15616;SDS011;7908;51.688;7.130;2023-04-15T06:44:28;14.60;;;13.10;;
15616;SDS011;7908;51.688;7.130;2023-04-15T06:46:59;15.07;;;12.77;;
15616;SDS011;7908;51.688;7.130;2023-04-15T06:49:27;13.93;;;12.53;;
15616;SDS011;7908;51.688;7.130;2023-04-15T06:51:56;13.60;;;12.20;;
15616;SDS011;7908;51.688;7.130;2023-04-15T06:54:26;14.83;;;12.27;;
15616;SDS011;7908;51.688;7.130;2023-04-15T06:56:57;14.23;;;12.07;;
15616;SDS011;7908;51.688;7.130;2023-04-15T06:59:26;13.23;;;11.37;;
15616;SDS011;7908;51.688;7.130;2023-04-15T07:01:54;14.27;;;12.50;;
15616;SDS011;7908;51.688;7.130;2023-04-15T07:04:23;14.10;;;11.40;;
15616;SDS011;7908;51.688;7.130;2023-04-15T07:06:52;13.13;;;11.73;;
15616;SDS011;7908;51.688;7.130;2023-04-15T07:09:21;12.90;;;11.60;;
15616;SDS011;7908;51.688;7.130;2023-04-15T07:11:50;12.57;;;11.27;;
15616;SDS011;7908;51.688;7.130;2023-04-15T07:14:20;12.20;;;11.00;;
15616;SDS011;7908;51.688;7.130;2023-04-15T07:16:53;12.67;;;11.37;;
15616;SDS011;7908;51.688;7.130;2023-04-15T07:19:23;12.07;;;10.47;;
15616;SDS011;7908;51.688;7.130;2023-04-15T07:21:52;11.47;;;10.37;;
15616;SDS011;7908;51.688;7.130;2023-04-15T07:24:20;12.70;;;10.60;;
15616;SDS011;7908;51.688;7.130;2023-04-15T07:26:52;12.57;;;11.20;;
15616;SDS011;7908;51.688;7.130;2023-04-15T07:29:25;11.20;;;10.10;;
15616;SDS011;7908;51.688;7.130;2023-04-15T07:31:56;10.40;;;9.33;;
15616;SDS011;7908;51.688;7.130;2023-04-15T07:34:25;10.83;;;9.73;;
15616;SDS011;7908;51.688;7.130;2023-04-15T07:36:56;12.70;;;10.40;;
15616;SDS011;7908;51.688;7.130;2023-04-15T07:39:25;10.70;;;9.57;;
15616;SDS011;7908;51.688;7.130;2023-04-15T07:41:54;10.53;;;8.63;;
15616;SDS011;7908;51.688;7.130;2023-04-15T07:44:26;10.87;;;9.07;;
15616;SDS011;7908;51.688;7.130;2023-04-15T07:46:55;9.97;;;8.97;;
15616;SDS011;7908;51.688;7.130;2023-04-15T07:49:24;10.30;;;8.30;;
15616;SDS011;7908;51.688;7.130;2023-04-15T07:51:52;10.27;;;8.90;;
15616;SDS011;7908;51.688;7.130;2023-04-15T07:54:23;9.43;;;8.47;;
15616;SDS011;7908;51.688;7.130;2023-04-15T07:56:52;9.87;;;8.87;;
15616;SDS011;7908;51.688;7.130;2023-04-15T07:59:23;10.20;;;9.20;;
15616;SDS011;7908;51.688;7.130;2023-04-15T08:01:55;8.60;;;7.73;;
15616;SDS011;7908;51.688;7.130;2023-04-15T08:04:24;10.37;;;9.03;;
15616;SDS011;7908;51.688;7.130;2023-04-15T08:06:54;9.63;;;8.57;;
15616;SDS011;7908;51.688;7.130;2023-04-15T08:09:24;9.33;;;8.33;;
15616;SDS011;7908;51.688;7.130;2023-04-15T08:11:52;10.07;;;9.07;;
15616;SDS011;7908;51.688;7.130;2023-04-15T08:14:22;9.20;;;8.00;;
15616;SDS011;7908;51.688;7.130;2023-04-15T08:16:53;8.90;;;8.00;;
15616;SDS011;7908;51.688;7.130;2023-04-15T08:19:25;8.40;;;6.80;;
15616;SDS011;7908;51.688;7.130;2023-04-15T08:21:53;7.10;;;6.40;;
15616;SDS011;7908;51.688;7.130;2023-04-15T08:24:23;6.40;;;5.80;;
15616;SDS011;7908;51.688;7.130;2023-04-15T08:26:55;6.40;;;5.80;;
15616;SDS011;7908;51.688;7.130;2023-04-15T08:29:26;6.47;;;5.63;;
15616;SDS011;7908;51.688;7.130;2023-04-15T08:32:01;6.60;;;5.90;;
15616;SDS011;7908;51.688;7.130;2023-04-15T08:34:30;7.27;;;6.57;;
15616;SDS011;7908;51.688;7.130;2023-04-15T08:37:03;6.87;;;6.17;;
15616;SDS011;7908;51.688;7.130;2023-04-15T08:39:33;7.53;;;6.80;;
15616;SDS011;7908;51.688;7.130;2023-04-15T08:42:02;6.23;;;5.63;;
15616;SDS011;7908;51.688;7.130;2023-04-15T08:44:33;7.37;;;5.93;;
15616;SDS011;7908;51.688;7.130;2023-04-15T08:47:06;6.97;;;5.97;;
15616;SDS011;7908;51.688;7.130;2023-04-15T08:49:38;6.70;;;6.00;;
15616;SDS011;7908;51.688;7.130;2023-04-15T08:52:07;6.23;;;5.63;;
15616;SDS011;7908;51.688;7.130;2023-04-15T08:54:37;6.10;;;5.50;;
15616;SDS011;7908;51.688;7.130;2023-04-15T08:57:07;6.60;;;6.00;;
15616;SDS011;7908;51.688;7.130;2023-04-15T08:59:36;6.30;;;5.70;;
15616;SDS011;7908;51.688;7.130;2023-04-15T09:02:07;6.00;;;5.43;;
15616;SDS011;7908;51.688;7.130;2023-04-15T09:04:41;5.87;;;5.13;;
15616;SDS011;7908;51.688;7.130;2023-04-15T09:07:19;6.93;;;5.23;;
15616;SDS011;7908;51.688;7.130;2023-04-15T09:09:52;5.63;;;5.13;;
15616;SDS011;7908;51.688;7.130;2023-04-15T09:12:22;6.00;;;5.37;;
15616;SDS011;7908;51.688;7.130;2023-04-15T09:14:51;5.73;;;5.23;;
15616;SDS011;7908;51.688;7.130;2023-04-15T09:17:22;5.60;;;5.10;;
15616;SDS011;7908;51.688;7.130;2023-04-15T09:20:06;6.33;;;5.47;;
15616;SDS011;7908;51.688;7.130;2023-04-15T09:22:45;6.47;;;5.87;;
15616;SDS011;7908;51.688;7.130;2023-04-15T09:28:10;6.30;;;5.70;;
15616;SDS011;7908;51.688;7.130;2023-04-15T09:30:42;7.03;;;5.40;;
15616;SDS011;7908;51.688;7.130;2023-04-15T09:33:17;5.90;;;5.30;;
15616;SDS011;7908;51.688;7.130;2023-04-15T09:35:58;6.10;;;5.50;;
15616;SDS011;7908;51.688;7.130;2023-04-15T09:38:28;5.97;;;5.47;;
15616;SDS011;7908;51.688;7.130;2023-04-15T09:41:01;6.77;;;6.13;;
15616;SDS011;7908;51.688;7.130;2023-04-15T09:43:38;7.00;;;6.30;;
15616;SDS011;7908;51.688;7.130;2023-04-15T09:46:15;7.73;;;5.90;;
15616;SDS011;7908;51.688;7.130;2023-04-15T09:48:46;7.37;;;6.67;;
15616;SDS011;7908;51.688;7.130;2023-04-15T09:51:43;7.30;;;6.60;;
15616;SDS011;7908;51.688;7.130;2023-04-15T09:54:34;7.97;;;7.17;;
15616;SDS011;7908;51.688;7.130;2023-04-15T09:57:07;6.90;;;6.20;;
15616;SDS011;7908;51.688;7.130;2023-04-15T09:59:44;6.60;;;5.97;;
15616;SDS011;7908;51.688;7.130;2023-04-15T10:02:23;7.03;;;6.33;;
15616;SDS011;7908;51.688;7.130;2023-04-15T10:05:04;6.23;;;5.63;;
15616;SDS011;7908;51.688;7.130;2023-04-15T10:07:49;6.50;;;5.90;;
15616;SDS011;7908;51.688;7.130;2023-04-15T10:10:22;6.23;;;5.63;;
15616;SDS011;7908;51.688;7.130;2023-04-15T10:12:53;5.67;;;5.13;;
15616;SDS011;7908;51.688;7.130;2023-04-15T10:15:23;6.03;;;5.20;;
15616;SDS011;7908;51.688;7.130;2023-04-15T10:17:55;7.03;;;6.20;;
15616;SDS011;7908;51.688;7.130;2023-04-15T10:20:38;6.17;;;5.57;;
15616;SDS011;7908;51.688;7.130;2023-04-15T10:23:09;5.47;;;4.97;;
15616;SDS011;7908;51.688;7.130;2023-04-15T10:25:44;6.40;;;5.53;;
15616;SDS011;7908;51.688;7.130;2023-04-15T10:28:19;7.57;;;5.60;;
15616;SDS011;7908;51.688;7.130;2023-04-15T10:31:13;5.73;;;5.10;;
15616;SDS011;7908;51.688;7.130;2023-04-15T10:33:50;5.63;;;5.13;;
15616;SDS011;7908;51.688;7.130;2023-04-15T10:36:36;5.83;;;5.30;;
15616;SDS011;7908;51.688;7.130;2023-04-15T10:42:09;6.43;;;5.20;;
15616;SDS011;7908;51.688;7.130;2023-04-15T10:44:41;5.93;;;5.33;;
15616;SDS011;7908;51.688;7.130;2023-04-15T10:47:15;8.27;;;5.70;;
15616;SDS011;7908;51.688;7.130;2023-04-15T10:49:56;6.07;;;5.47;;
15616;SDS011;7908;51.688;7.130;2023-04-15T10:52:32;5.50;;;5.00;;
15616;SDS011;7908;51.688;7.130;2023-04-15T10:55:13;5.77;;;5.20;;
15616;SDS011;7908;51.688;7.130;2023-04-15T10:57:52;5.80;;;5.20;;
15616;SDS011;7908;51.688;7.130;2023-04-15T11:00:36;5.90;;;5.30;;
15616;SDS011;7908;51.688;7.130;2023-04-15T11:03:10;5.43;;;4.93;;
15616;SDS011;7908;51.688;7.130;2023-04-15T11:05:51;6.43;;;5.30;;
15616;SDS011;7908;51.688;7.130;2023-04-15T11:14:38;5.90;;;5.30;;
15616;SDS011;7908;51.688;7.130;2023-04-15T11:17:16;6.50;;;5.90;;
15616;SDS011;7908;51.688;7.130;2023-04-15T11:20:03;6.10;;;5.50;;
15616;SDS011;7908;51.688;7.130;2023-04-15T11:22:48;8.97;;;5.20;;
15616;SDS011;7908;51.688;7.130;2023-04-15T11:25:42;6.07;;;5.50;;
15616;SDS011;7908;51.688;7.130;2023-04-15T11:28:24;6.40;;;5.17;;
15616;SDS011;7908;51.688;7.130;2023-04-15T11:31:04;5.70;;;5.07;;
15616;SDS011;7908;51.688;7.130;2023-04-15T11:33:43;5.47;;;4.97;;
15616;SDS011;7908;51.688;7.130;2023-04-15T11:36:30;6.63;;;5.27;;
15616;SDS011;7908;51.688;7.130;2023-04-15T11:39:10;6.40;;;5.30;;
15616;SDS011;7908;51.688;7.130;2023-04-15T11:41:44;7.00;;;4.97;;
15616;SDS011;7908;51.688;7.130;2023-04-15T11:44:16;5.37;;;4.87;;
15616;SDS011;7908;51.688;7.130;2023-04-15T11:46:49;6.47;;;5.13;;
15616;SDS011;7908;51.688;7.130;2023-04-15T11:49:27;7.00;;;4.67;;
15616;SDS011;7908;51.688;7.130;2023-04-15T11:52:04;4.70;;;4.20;;
15616;SDS011;7908;51.688;7.130;2023-04-15T11:54:42;5.87;;;4.40;;
15616;SDS011;7908;51.688;7.130;2023-04-15T11:57:13;5.13;;;4.63;;
15616;SDS011;7908;51.688;7.130;2023-04-15T11:59:44;4.53;;;4.13;;
15616;SDS011;7908;51.688;7.130;2023-04-15T12:02:14;5.73;;;4.53;;
15616;SDS011;7908;51.688;7.130;2023-04-15T12:04:49;4.80;;;4.03;;
15616;SDS011;7908;51.688;7.130;2023-04-15T12:07:19;4.70;;;4.20;;
15616;SDS011;7908;51.688;7.130;2023-04-15T12:09:55;4.60;;;4.20;;
15616;SDS011;7908;51.688;7.130;2023-04-15T12:12:50;5.10;;;4.00;;
15616;SDS011;7908;51.688;7.130;2023-04-15T12:15:23;4.37;;;3.70;;
15616;SDS011;7908;51.688;7.130;2023-04-15T12:17:54;4.23;;;3.80;;
15616;SDS011;7908;51.688;7.130;2023-04-15T12:20:27;3.57;;;3.27;;
15616;SDS011;7908;51.688;7.130;2023-04-15T12:23:20;4.87;;;3.80;;
15616;SDS011;7908;51.688;7.130;2023-04-15T12:25:56;3.93;;;3.33;;
15616;SDS011;7908;51.688;7.130;2023-04-15T12:28:37;3.87;;;3.57;;
15616;SDS011;7908;51.688;7.130;2023-04-15T12:31:13;4.70;;;4.20;;
15616;SDS011;7908;51.688;7.130;2023-04-15T12:33:47;4.23;;;3.33;;
15616;SDS011;7908;51.688;7.130;2023-04-15T12:36:17;4.80;;;3.50;;
15616;SDS011;7908;51.688;7.130;2023-04-15T12:38:51;4.90;;;3.93;;
15616;SDS011;7908;51.688;7.130;2023-04-15T12:41:22;4.47;;;3.50;;
15616;SDS011;7908;51.688;7.130;2023-04-15T12:43:57;4.07;;;3.40;;
15616;SDS011;7908;51.688;7.130;2023-04-15T12:46:29;5.03;;;3.50;;
15616;SDS011;7908;51.688;7.130;2023-04-15T12:49:02;4.07;;;3.40;;
15616;SDS011;7908;51.688;7.130;2023-04-15T12:51:35;4.20;;;3.80;;
15616;SDS011;7908;51.688;7.130;2023-04-15T12:54:12;5.67;;;3.70;;
15616;SDS011;7908;51.688;7.130;2023-04-15T12:56:48;4.37;;;3.97;;
15616;SDS011;7908;51.688;7.130;2023-04-15T12:59:20;3.37;;;3.07;;
15616;SDS011;7908;51.688;7.130;2023-04-15T13:02:01;3.67;;;2.93;;
15616;SDS011;7908;51.688;7.130;2023-04-15T13:04:48;3.43;;;3.10;;
15616;SDS011;7908;51.688;7.130;2023-04-15T13:07:21;4.00;;;3.17;;
15616;SDS011;7908;51.688;7.130;2023-04-15T13:09:55;3.20;;;2.90;;
15616;SDS011;7908;51.688;7.130;2023-04-15T13:12:27;3.40;;;3.00;;
15616;SDS011;7908;51.688;7.130;2023-04-15T13:15:02;4.43;;;3.27;;
15616;SDS011;7908;51.688;7.130;2023-04-15T13:17:48;3.50;;;3.20;;
15616;SDS011;7908;51.688;7.130;2023-04-15T13:20:18;4.23;;;3.13;;
15616;SDS011;7908;51.688;7.130;2023-04-15T13:22:48;4.93;;;2.90;;
15616;SDS011;7908;51.688;7.130;2023-04-15T13:25:17;3.80;;;3.07;;
15616;SDS011;7908;51.688;7.130;2023-04-15T13:27:46;3.77;;;3.10;;
15616;SDS011;7908;51.688;7.130;2023-04-15T13:30:22;3.57;;;2.90;;
15616;SDS011;7908;51.688;7.130;2023-04-15T13:32:55;4.97;;;3.20;;
15616;SDS011;7908;51.688;7.130;2023-04-15T13:35:29;3.47;;;3.17;;
15616;SDS011;7908;51.688;7.130;2023-04-15T13:38:04;3.90;;;3.20;;
15616;SDS011;7908;51.688;7.130;2023-04-15T13:40:39;4.37;;;3.20;;
15616;SDS011;7908;51.688;7.130;2023-04-15T13:43:11;4.40;;;3.13;;
15616;SDS011;7908;51.688;7.130;2023-04-15T13:45:45;5.30;;;3.07;;
15616;SDS011;7908;51.688;7.130;2023-04-15T13:48:17;3.53;;;3.20;;
15616;SDS011;7908;51.688;7.130;2023-04-15T13:50:51;3.83;;;2.90;;
15616;SDS011;7908;51.688;7.130;2023-04-15T13:53:26;4.03;;;3.30;;
15616;SDS011;7908;51.688;7.130;2023-04-15T13:56:04;3.87;;;3.30;;
15616;SDS011;7908;51.688;7.130;2023-04-15T13:58:37;5.20;;;3.70;;
15616;SDS011;7908;51.688;7.130;2023-04-15T14:01:15;5.43;;;4.13;;
15616;SDS011;7908;51.688;7.130;2023-04-15T14:03:48;4.77;;;4.27;;
15616;SDS011;7908;51.688;7.130;2023-04-15T14:06:18;6.23;;;4.17;;
15616;SDS011;7908;51.688;7.130;2023-04-15T14:08:48;6.10;;;4.20;;
15616;SDS011;7908;51.688;7.130;2023-04-15T14:11:19;5.40;;;4.53;;
15616;SDS011;7908;51.688;7.130;2023-04-15T14:13:48;4.93;;;4.10;;
15616;SDS011;7908;51.688;7.130;2023-04-15T14:16:19;4.70;;;3.97;;
15616;SDS011;7908;51.688;7.130;2023-04-15T14:18:57;4.80;;;4.30;;
15616;SDS011;7908;51.688;7.130;2023-04-15T14:21:27;5.90;;;4.60;;
15616;SDS011;7908;51.688;7.130;2023-04-15T14:23:58;5.37;;;4.50;;
15616;SDS011;7908;51.688;7.130;2023-04-15T14:26:27;5.87;;;3.93;;
15616;SDS011;7908;51.688;7.130;2023-04-15T14:29:08;6.30;;;4.40;;
15616;SDS011;7908;51.688;7.130;2023-04-15T14:31:54;5.37;;;4.60;;
15616;SDS011;7908;51.688;7.130;2023-04-15T14:34:38;5.13;;;4.27;;
15616;SDS011;7908;51.688;7.130;2023-04-15T14:37:10;6.20;;;4.00;;
15616;SDS011;7908;51.688;7.130;2023-04-15T14:39:45;6.53;;;5.00;;
15616;SDS011;7908;51.688;7.130;2023-04-15T14:42:14;7.77;;;4.70;;
15616;SDS011;7908;51.688;7.130;2023-04-15T14:44:43;5.03;;;4.40;;
15616;SDS011;7908;51.688;7.130;2023-04-15T14:47:16;5.87;;;4.90;;
15616;SDS011;7908;51.688;7.130;2023-04-15T14:49:48;7.57;;;4.80;;
15616;SDS011;7908;51.688;7.130;2023-04-15T14:52:21;7.17;;;4.53;;
15616;SDS011;7908;51.688;7.130;2023-04-15T14:54:52;6.40;;;4.90;;
15616;SDS011;7908;51.688;7.130;2023-04-15T14:57:21;6.10;;;5.00;;
15616;SDS011;7908;51.688;7.130;2023-04-15T14:59:50;5.40;;;4.40;;
15616;SDS011;7908;51.688;7.130;2023-04-15T15:02:26;5.40;;;4.73;;
15616;SDS011;7908;51.688;7.130;2023-04-15T15:04:59;5.30;;;4.60;;
15616;SDS011;7908;51.688;7.130;2023-04-15T15:07:30;5.87;;;4.37;;
15616;SDS011;7908;51.688;7.130;2023-04-15T15:10:01;6.50;;;4.80;;
15616;SDS011;7908;51.688;7.130;2023-04-15T15:12:37;6.40;;;4.57;;
15616;SDS011;7908;51.688;7.130;2023-04-15T15:15:07;4.70;;;4.30;;
15616;SDS011;7908;51.688;7.130;2023-04-15T15:17:55;5.73;;;4.90;;
15616;SDS011;7908;51.688;7.130;2023-04-15T15:20:24;5.20;;;4.10;;
15616;SDS011;7908;51.688;7.130;2023-04-15T15:22:56;4.87;;;4.33;;
15616;SDS011;7908;51.688;7.130;2023-04-15T15:25:26;4.70;;;4.20;;
15616;SDS011;7908;51.688;7.130;2023-04-15T15:27:56;5.63;;;4.27;;
15616;SDS011;7908;51.688;7.130;2023-04-15T15:30:32;4.03;;;3.63;;
15616;SDS011;7908;51.688;7.130;2023-04-15T15:33:09;4.97;;;4.13;;
15616;SDS011;7908;51.688;7.130;2023-04-15T15:35:41;4.50;;;4.03;;